Time;durP1;ratioP1;P1;durP2;ratioP2;P2;SDS_P1;SDS_P2;PMS_P1;PMS_P2;Temp;Humidity;BMP_temperature;BMP_pressure;BME280_temperature;BME280_humidity;BME280_pressure;Samples;Min_cycle;Max_cycle;Signal;HPM_P1;HPM_P2
2021/04/25 00:00:24;;;;;;;7.15;3.92;;;9.40;51.10;;;;;;5015979;28;20049;-70
2021/04/25 00:02:50;;;;;;;6.70;3.72;;;9.30;50.90;;;;;;4999995;28;20145;-69
2021/04/25 00:05:17;;;;;;;7.00;3.70;;;9.30;50.90;;;;;;4999975;28;20104;-73
2021/04/25 00:07:43;;;;;;;7.78;4.22;;;9.30;50.90;;;;;;5018219;28;20434;-70
2021/04/25 00:10:18;;;;;;;6.93;4.03;;;9.30;50.80;;;;;;5016467;28;20042;-70
2021/04/25 00:12:47;;;;;;;8.00;4.13;;;9.30;50.80;;;;;;5016276;28;20612;-68
2021/04/25 00:15:16;;;;;;;7.75;3.97;;;9.20;50.80;;;;;;5016323;28;20176;-70
2021/04/25 00:17:41;;;;;;;10.30;4.15;;;9.20;50.80;;;;;;5016838;28;20170;-70
2021/04/25 00:20:08;;;;;;;7.75;3.58;;;9.20;50.80;;;;;;5030546;28;20069;-70
2021/04/25 00:22:34;;;;;;;5.88;3.50;;;9.20;50.80;;;;;;4999359;28;20042;-70
2021/04/25 00:25:00;;;;;;;9.25;3.63;;;9.20;50.80;;;;;;5033252;28;20394;-71
2021/04/25 00:27:27;;;;;;;8.75;3.65;;;9.20;50.80;;;;;;5035156;28;20091;-71
2021/04/25 00:29:52;;;;;;;9.48;3.83;;;9.10;50.80;;;;;;5032564;28;20049;-69
2021/04/25 00:32:18;;;;;;;8.77;3.75;;;9.10;50.80;;;;;;5004219;28;20136;-73
2021/04/25 00:34:44;;;;;;;8.00;4.53;;;9.10;50.90;;;;;;4999207;28;20455;-71
2021/04/25 00:37:10;;;;;;;8.32;3.50;;;9.10;50.90;;;;;;5022576;28;20048;-73
2021/04/25 00:39:36;;;;;;;7.50;4.18;;;9.10;50.90;;;;;;5024691;28;20069;-70
2021/04/25 00:42:01;;;;;;;7.25;3.90;;;9.10;50.90;;;;;;4999681;28;20093;-71
2021/04/25 00:44:27;;;;;;;9.13;3.50;;;9.10;50.90;;;;;;5025784;28;20048;-70
2021/04/25 00:46:53;;;;;;;8.40;3.70;;;9.10;50.90;;;;;;5035860;28;20120;-71
2021/04/25 00:49:19;;;;;;;8.25;3.80;;;9.00;50.90;;;;;;5028081;28;20049;-72
2021/04/25 00:51:45;;;;;;;6.18;3.42;;;9.10;51.00;;;;;;5014699;28;20141;-71
2021/04/25 00:54:13;;;;;;;8.10;3.95;;;9.00;50.90;;;;;;5015871;28;20057;-70
2021/04/25 00:56:39;;;;;;;6.57;3.45;;;9.00;51.00;;;;;;4998541;28;20046;-71
2021/04/25 00:59:07;;;;;;;9.18;3.88;;;9.00;51.00;;;;;;5004429;28;20060;-71
2021/04/25 01:01:33;;;;;;;7.72;3.70;;;9.00;50.90;;;;;;5017589;28;20046;-71
2021/04/25 01:03:59;;;;;;;9.32;4.18;;;9.00;51.00;;;;;;5035840;28;20045;-69
2021/04/25 01:06:25;;;;;;;9.10;3.75;;;9.00;51.00;;;;;;5034385;28;20045;-73
2021/04/25 01:08:50;;;;;;;7.65;3.47;;;9.00;51.00;;;;;;5034910;28;20042;-70
2021/04/25 01:11:17;;;;;;;7.18;3.80;;;9.00;51.00;;;;;;5036463;28;20045;-70
2021/04/25 01:13:43;;;;;;;8.32;3.65;;;9.00;51.00;;;;;;5034082;28;20643;-70
2021/04/25 01:16:09;;;;;;;7.72;3.80;;;9.00;51.00;;;;;;5034941;28;20042;-70
2021/04/25 01:18:35;;;;;;;7.75;3.47;;;9.00;51.00;;;;;;5034494;28;20084;-70
2021/04/25 01:21:04;;;;;;;7.70;3.78;;;9.00;51.00;;;;;;5034811;28;20049;-70
2021/04/25 01:23:30;;;;;;;6.93;3.13;;;8.90;51.00;;;;;;5017709;28;20065;-71
2021/04/25 01:25:56;;;;;;;6.88;3.47;;;8.90;51.00;;;;;;5035937;28;20397;-70
2021/04/25 01:28:22;;;;;;;7.75;3.33;;;9.00;51.10;;;;;;5035190;28;20037;-71
2021/04/25 01:30:48;;;;;;;6.78;3.42;;;9.00;51.20;;;;;;5033308;28;20037;-70
2021/04/25 01:33:13;;;;;;;7.65;3.35;;;9.00;51.20;;;;;;5020090;28;20049;-70
2021/04/25 01:35:42;;;;;;;11.98;3.53;;;9.00;51.30;;;;;;5005588;28;20068;-69
2021/04/25 01:38:08;;;;;;;7.00;3.45;;;8.90;51.30;;;;;;5034547;28;20037;-71
2021/04/25 01:40:34;;;;;;;6.97;3.58;;;8.90;51.30;;;;;;5025779;28;20072;-71
2021/04/25 01:43:00;;;;;;;7.97;2.70;;;8.90;51.40;;;;;;5014713;28;20049;-72
2021/04/25 01:45:27;;;;;;;6.95;2.65;;;8.90;51.40;;;;;;5016025;28;20076;-71
2021/04/25 01:47:54;;;;;;;6.22;3.15;;;8.90;51.50;;;;;;5014395;28;20052;-71
2021/04/25 01:50:24;;;;;;;6.20;2.55;;;8.90;51.50;;;;;;5015983;28;20046;-69
2021/04/25 01:52:50;;;;;;;4.65;2.17;;;8.90;51.30;;;;;;4997887;28;20598;-71
2021/04/25 01:55:17;;;;;;;7.18;2.42;;;8.90;51.30;;;;;;5014849;28;20077;-71
2021/04/25 01:57:43;;;;;;;7.38;3.47;;;8.90;51.30;;;;;;4998016;28;20073;-71
2021/04/25 02:00:11;;;;;;;6.93;2.80;;;8.80;51.30;;;;;;4998528;28;20053;-70
2021/04/25 02:02:38;;;;;;;6.13;2.45;;;8.80;51.40;;;;;;5013304;28;20094;-72
2021/04/25 02:05:04;;;;;;;7.40;2.40;;;8.80;51.40;;;;;;4981966;28;20048;-70
2021/04/25 02:07:32;;;;;;;6.82;2.28;;;8.80;51.40;;;;;;5014665;28;20050;-71
2021/04/25 02:09:58;;;;;;;9.43;2.28;;;8.80;51.30;;;;;;4982295;28;20483;-70
2021/04/25 02:12:25;;;;;;;7.70;2.35;;;8.80;51.30;;;;;;5015508;28;20089;-71
2021/04/25 02:14:51;;;;;;;6.53;2.67;;;8.80;51.30;;;;;;5014096;28;20049;-71
2021/04/25 02:17:17;;;;;;;5.95;2.63;;;8.80;51.20;;;;;;5014312;28;20042;-69
2021/04/25 02:19:42;;;;;;;8.63;2.42;;;8.80;51.20;;;;;;5013703;28;20443;-70
2021/04/25 02:22:11;;;;;;;5.20;2.10;;;8.80;51.20;;;;;;4998322;28;20113;-70
2021/04/25 02:24:37;;;;;;;6.10;2.38;;;8.80;51.20;;;;;;5013858;28;20208;-73
2021/04/25 02:27:06;;;;;;;4.85;2.10;;;8.80;51.30;;;;;;5015698;28;20072;-70
2021/04/25 02:29:34;;;;;;;7.20;2.80;;;8.80;51.20;;;;;;4997593;28;20053;-71
2021/04/25 02:32:00;;;;;;;6.28;2.15;;;8.80;51.20;;;;;;4981371;28;20383;-71
2021/04/25 02:34:25;;;;;;;7.53;3.05;;;8.80;51.20;;;;;;5014167;28;20483;-70
2021/04/25 02:36:51;;;;;;;6.93;2.53;;;8.80;51.30;;;;;;5013428;28;20050;-71
2021/04/25 02:39:18;;;;;;;6.03;2.67;;;8.80;51.30;;;;;;5015839;28;20046;-70
2021/04/25 02:41:45;;;;;;;4.90;2.20;;;8.70;51.20;;;;;;5014427;28;20050;-71
2021/04/25 02:44:11;;;;;;;4.85;2.38;;;8.70;51.30;;;;;;5014223;28;20518;-71
2021/04/25 02:46:36;;;;;;;9.38;2.80;;;8.70;51.30;;;;;;5014031;28;20042;-71
2021/04/25 02:49:02;;;;;;;6.45;2.45;;;8.70;51.30;;;;;;5013490;28;20137;-71
2021/04/25 02:51:28;;;;;;;5.82;2.17;;;8.70;51.40;;;;;;5014739;28;20049;-70
2021/04/25 02:53:54;;;;;;;4.55;2.70;;;8.70;51.30;;;;;;5014171;28;20053;-71
2021/04/25 02:56:20;;;;;;;6.88;3.00;;;8.70;51.40;;;;;;5013638;28;20427;-70
2021/04/25 02:58:45;;;;;;;7.50;3.00;;;8.70;51.40;;;;;;5013146;28;20056;-71
2021/04/25 03:01:11;;;;;;;8.75;2.70;;;8.70;51.40;;;;;;5013790;28;20129;-70
2021/04/25 03:03:37;;;;;;;8.00;2.83;;;8.60;51.30;;;;;;5015198;28;20081;-70
2021/04/25 03:06:06;;;;;;;8.05;3.00;;;8.70;51.40;;;;;;4996486;28;20803;-71
2021/04/25 03:08:34;;;;;;;8.48;2.47;;;8.60;51.30;;;;;;5013232;28;20042;-70
2021/04/25 03:11:00;;;;;;;7.25;2.65;;;8.60;51.40;;;;;;5017969;28;20832;-71
2021/04/25 03:13:25;;;;;;;6.65;2.67;;;8.60;51.40;;;;;;5018817;28;20062;-68
2021/04/25 03:15:51;;;;;;;6.60;2.70;;;8.60;51.50;;;;;;5016770;28;20050;-71
2021/04/25 03:18:17;;;;;;;6.30;2.13;;;8.60;51.50;;;;;;5017693;28;20506;-70
2021/04/25 03:20:45;;;;;;;7.05;2.65;;;8.60;51.60;;;;;;5015918;28;20453;-74
2021/04/25 03:23:11;;;;;;;7.65;2.63;;;8.60;51.60;;;;;;5018985;28;20038;-70
2021/04/25 03:25:42;;;;;;;8.45;2.20;;;8.60;51.70;;;;;;5038319;28;20132;-70
2021/04/25 03:28:13;;;;;;;6.22;2.30;;;8.60;51.50;;;;;;5039647;28;20098;-71
2021/04/25 03:30:39;;;;;;;10.05;2.95;;;8.60;51.50;;;;;;5028736;28;20440;-70
2021/04/25 03:33:05;;;;;;;7.50;2.50;;;8.60;51.50;;;;;;5021959;28;20154;-71
2021/04/25 03:35:31;;;;;;;7.35;2.42;;;8.60;51.60;;;;;;5058534;28;20101;-70
2021/04/25 03:37:57;;;;;;;7.70;2.80;;;8.60;51.70;;;;;;5057501;28;20068;-70
2021/04/25 03:40:23;;;;;;;8.00;2.55;;;8.60;51.80;;;;;;5057666;28;20041;-70
2021/04/25 03:42:49;;;;;;;6.68;2.20;;;8.50;51.70;;;;;;5038161;28;20060;-74
2021/04/25 03:45:15;;;;;;;7.93;2.65;;;8.50;51.80;;;;;;5020080;28;20041;-71
2021/04/25 03:47:46;;;;;;;7.63;2.35;;;8.50;51.80;;;;;;5004594;28;20061;-70
2021/04/25 03:50:13;;;;;;;6.13;2.25;;;8.50;51.90;;;;;;5004692;28;20083;-71
2021/04/25 03:52:41;;;;;;;6.18;2.53;;;8.50;51.90;;;;;;5038134;28;20101;-70
2021/04/25 03:55:07;;;;;;;9.77;2.15;;;8.50;51.80;;;;;;5021048;28;20076;-71
2021/04/25 03:57:33;;;;;;;6.97;2.22;;;8.50;51.80;;;;;;5038745;28;20049;-70
2021/04/25 04:00:00;;;;;;;5.53;2.20;;;8.50;51.90;;;;;;5020203;28;20041;-71
2021/04/25 04:02:26;;;;;;;5.47;2.35;;;8.50;51.90;;;;;;5020349;28;20076;-70
2021/04/25 04:04:52;;;;;;;6.75;2.10;;;8.50;51.90;;;;;;5019734;28;20396;-72
2021/04/25 04:07:18;;;;;;;6.00;2.38;;;8.50;51.90;;;;;;5038949;28;20076;-70
2021/04/25 04:09:44;;;;;;;4.95;2.20;;;8.50;51.90;;;;;;5020891;28;20056;-71
2021/04/25 04:12:10;;;;;;;8.45;2.28;;;8.50;51.90;;;;;;5003760;28;20033;-71
2021/04/25 04:14:36;;;;;;;8.60;2.15;;;8.50;51.90;;;;;;5039752;28;20049;-71
2021/04/25 04:17:04;;;;;;;5.63;2.40;;;8.50;51.80;;;;;;5005490;28;20064;-70
2021/04/25 04:19:30;;;;;;;6.40;2.35;;;8.50;52.00;;;;;;4990127;28;20045;-70
2021/04/25 04:21:56;;;;;;;7.20;2.92;;;8.50;51.80;;;;;;5020661;28;20060;-71
2021/04/25 04:24:22;;;;;;;5.20;1.92;;;8.50;51.80;;;;;;5002333;28;20376;-70
2021/04/25 04:26:48;;;;;;;7.47;2.75;;;8.50;51.70;;;;;;5002778;28;20054;-69
2021/04/25 04:29:14;;;;;;;8.38;2.78;;;8.50;52.00;;;;;;5018384;28;20286;-70
2021/04/25 04:31:39;;;;;;;7.15;1.95;;;8.50;52.00;;;;;;4986397;28;20096;-70
2021/04/25 04:34:05;;;;;;;7.30;2.60;;;8.50;51.90;;;;;;5018605;28;20048;-70
2021/04/25 04:36:34;;;;;;;9.93;2.40;;;8.40;51.90;;;;;;5002284;28;20054;-72
2021/04/25 04:39:00;;;;;;;7.18;2.22;;;8.40;52.10;;;;;;5002307;28;20092;-70
2021/04/25 04:41:25;;;;;;;8.35;2.67;;;8.50;52.20;;;;;;5019880;28;20394;-70
2021/04/25 04:43:53;;;;;;;7.95;2.13;;;8.40;52.40;;;;;;5019316;28;20050;-70
2021/04/25 04:46:19;;;;;;;4.85;2.25;;;8.40;52.50;;;;;;5002035;28;20151;-70
2021/04/25 04:48:47;;;;;;;8.82;2.30;;;8.50;52.60;;;;;;5018163;28;20046;-70
2021/04/25 04:51:13;;;;;;;8.38;2.15;;;8.40;52.70;;;;;;4984894;28;20064;-71
2021/04/25 04:53:39;;;;;;;5.38;2.08;;;8.40;52.60;;;;;;5018030;28;20128;-71
2021/04/25 04:56:05;;;;;;;5.75;2.17;;;8.50;52.80;;;;;;5017610;28;20501;-72
2021/04/25 04:58:31;;;;;;;7.07;2.00;;;8.50;52.80;;;;;;5017736;28;20101;-71
2021/04/25 05:00:57;;;;;;;7.20;2.33;;;8.40;52.80;;;;;;5017697;28;20364;-73
2021/04/25 05:03:22;;;;;;;6.40;2.03;;;8.50;53.10;;;;;;4985487;28;20159;-70
2021/04/25 05:05:49;;;;;;;6.03;1.95;;;8.50;53.00;;;;;;5018906;28;20042;-71
2021/04/25 05:08:15;;;;;;;5.95;1.88;;;8.50;53.40;;;;;;5018067;28;20515;-69
2021/04/25 05:10:40;;;;;;;6.10;2.33;;;8.50;53.20;;;;;;5001189;28;20053;-70
2021/04/25 05:13:10;;;;;;;6.85;1.95;;;8.50;53.20;;;;;;5016868;28;20104;-71
2021/04/25 05:15:39;;;;;;;6.63;2.50;;;8.50;53.20;;;;;;5018449;28;20347;-69
2021/04/25 05:18:05;;;;;;;7.85;2.25;;;8.40;52.90;;;;;;5000567;28;20056;-71
2021/04/25 05:20:30;;;;;;;6.75;2.35;;;8.50;52.90;;;;;;5000751;28;20054;-70
2021/04/25 05:22:57;;;;;;;5.35;1.63;;;8.50;53.00;;;;;;5017340;28;20080;-71
2021/04/25 05:25:23;;;;;;;8.00;2.03;;;8.50;53.10;;;;;;5016880;28;20069;-71
2021/04/25 05:27:54;;;;;;;6.55;1.90;;;8.50;53.10;;;;;;5028716;28;20065;-71
2021/04/25 05:30:20;;;;;;;7.53;2.10;;;8.50;53.10;;;;;;5011012;28;20816;-71
2021/04/25 05:32:46;;;;;;;7.72;1.90;;;8.50;53.10;;;;;;5027018;28;20038;-71
2021/04/25 05:35:12;;;;;;;7.05;1.80;;;8.60;53.20;;;;;;5028208;28;20444;-71
2021/04/25 05:37:38;;;;;;;5.95;1.80;;;8.60;53.20;;;;;;5026324;28;20033;-72
2021/04/25 05:40:05;;;;;;;6.40;2.20;;;8.60;53.30;;;;;;5013262;28;20041;-73
2021/04/25 05:42:31;;;;;;;7.68;2.22;;;8.60;53.30;;;;;;5008680;28;20071;-71
2021/04/25 05:44:57;;;;;;;7.28;1.98;;;8.60;53.30;;;;;;5026392;28;20045;-70
2021/04/25 05:47:23;;;;;;;7.03;1.75;;;8.60;53.30;;;;;;5023673;28;20041;-70
2021/04/25 05:49:49;;;;;;;6.95;2.55;;;8.60;53.20;;;;;;5027888;28;20034;-70
2021/04/25 05:52:14;;;;;;;6.68;1.80;;;8.60;53.20;;;;;;5025738;28;20042;-69
2021/04/25 05:54:40;;;;;;;6.38;1.95;;;8.60;53.20;;;;;;5030165;28;20489;-70
2021/04/25 05:57:08;;;;;;;7.15;2.53;;;8.70;53.30;;;;;;5020175;28;20128;-74
2021/04/25 05:59:36;;;;;;;8.43;2.42;;;8.70;53.00;;;;;;5020329;28;20505;-69
2021/04/25 06:02:06;;;;;;;7.18;2.13;;;8.60;53.00;;;;;;5019612;28;20068;-69
2021/04/25 06:04:32;;;;;;;6.53;1.60;;;8.70;53.00;;;;;;5036385;28;20056;-70
2021/04/25 06:06:59;;;;;;;11.13;2.13;;;8.70;53.00;;;;;;5015143;28;20041;-70
2021/04/25 06:09:24;;;;;;;7.18;2.05;;;8.70;53.70;;;;;;5031716;28;20048;-71
2021/04/25 06:11:50;;;;;;;6.60;1.58;;;8.70;52.80;;;;;;5010827;28;20120;-70
2021/04/25 06:14:19;;;;;;;6.95;1.70;;;8.80;52.70;;;;;;5015457;28;20198;-71
2021/04/25 06:16:47;;;;;;;4.55;2.47;;;8.80;52.80;;;;;;5030207;28;20045;-70
2021/04/25 06:19:15;;;;;;;8.52;2.00;;;8.80;52.50;;;;;;5026173;28;20458;-71
2021/04/25 06:21:41;;;;;;;4.85;1.45;;;8.80;52.50;;;;;;5013985;28;20100;-70
2021/04/25 06:24:07;;;;;;;6.63;2.13;;;8.90;52.60;;;;;;5011927;28;20069;-70
2021/04/25 06:26:33;;;;;;;6.22;1.70;;;8.80;52.50;;;;;;5031307;28;20478;-70
2021/04/25 06:28:59;;;;;;;5.22;1.88;;;8.90;52.60;;;;;;5029965;28;20037;-69
2021/04/25 06:31:25;;;;;;;4.93;1.73;;;8.90;52.60;;;;;;5030280;28;20486;-71
2021/04/25 06:33:51;;;;;;;3.83;1.77;;;8.90;52.40;;;;;;4994594;28;20142;-70
2021/04/25 06:36:19;;;;;;;7.28;1.80;;;8.90;52.40;;;;;;5013219;28;20046;-70
2021/04/25 06:38:45;;;;;;;6.97;2.03;;;8.90;52.40;;;;;;5030974;28;20088;-71
2021/04/25 06:41:10;;;;;;;6.15;2.00;;;9.00;52.60;;;;;;5026426;28;20371;-74
2021/04/25 06:43:36;;;;;;;11.07;1.95;;;9.00;52.50;;;;;;5028321;28;20101;-71
2021/04/25 06:46:02;;;;;;;8.40;1.65;;;9.00;52.50;;;;;;5028052;28;20065;-70
2021/04/25 06:48:33;;;;;;;7.67;1.80;;;9.00;52.40;;;;;;5026707;28;20067;-70
2021/04/25 06:50:59;;;;;;;5.03;1.63;;;9.00;52.40;;;;;;5009814;28;20371;-71
2021/04/25 06:53:25;;;;;;;8.07;2.05;;;9.10;52.60;;;;;;5033049;28;21919;-71
2021/04/25 06:55:51;;;;;;;5.78;2.25;;;9.00;52.60;;;;;;5030626;28;20053;-69
2021/04/25 06:58:17;;;;;;;12.02;2.53;;;9.10;52.60;;;;;;5031617;28;20109;-74
2021/04/25 07:00:42;;;;;;;10.52;2.42;;;9.10;52.50;;;;;;5023075;28;20120;-71
2021/04/25 07:03:08;;;;;;;8.88;1.80;;;9.10;52.40;;;;;;5031567;28;20034;-72
2021/04/25 07:05:34;;;;;;;5.63;2.28;;;9.10;52.30;;;;;;5026940;28;20078;-70
2021/04/25 07:08:00;;;;;;;6.88;2.72;;;9.10;52.10;;;;;;5020195;28;20101;-72
2021/04/25 07:10:26;;;;;;;7.43;2.13;;;9.30;53.90;;;;;;5033431;28;20057;-72
2021/04/25 07:12:52;;;;;;;4.93;2.25;;;9.40;52.60;;;;;;5037548;28;20091;-73
2021/04/25 07:15:18;;;;;;;6.75;2.15;;;9.50;52.60;;;;;;5036048;28;20053;-74
2021/04/25 07:17:44;;;;;;;7.53;2.15;;;9.60;53.60;;;;;;5014316;28;20069;-75
2021/04/25 07:20:10;;;;;;;5.60;2.20;;;9.70;52.40;;;;;;5021653;28;20042;-73
2021/04/25 07:22:36;;;;;;;8.18;1.80;;;9.80;53.00;;;;;;5017042;28;20064;-71
2021/04/25 07:25:05;;;;;;;6.60;2.13;;;9.80;52.00;;;;;;5002006;28;20081;-74
2021/04/25 07:27:31;;;;;;;9.35;2.38;;;10.00;54.50;;;;;;5019302;28;20048;-70
2021/04/25 07:29:57;;;;;;;13.35;2.75;;;10.30;53.60;;;;;;5026285;28;20049;-73
2021/04/25 07:32:23;;;;;;;7.72;1.70;;;10.30;52.10;;;;;;5023191;28;20056;-70
2021/04/25 07:34:49;;;;;;;7.07;2.13;;;10.30;51.40;;;;;;5016787;28;20060;-72
2021/04/25 07:37:14;;;;;;;6.00;2.13;;;10.30;51.10;;;;;;5020199;28;20108;-66
2021/04/25 07:39:43;;;;;;;9.43;2.03;;;10.20;50.90;;;;;;5015476;28;20053;-70
2021/04/25 07:42:10;;;;;;;10.65;1.90;;;10.20;50.80;;;;;;5009764;28;20443;-70
2021/04/25 07:44:37;;;;;;;6.38;2.13;;;10.20;50.80;;;;;;5034274;28;20128;-71
2021/04/25 07:47:03;;;;;;;6.85;2.10;;;10.10;50.70;;;;;;5038065;28;20041;-71
2021/04/25 07:49:30;;;;;;;6.03;1.60;;;10.10;50.70;;;;;;5029618;28;20445;-71
2021/04/25 07:51:56;;;;;;;5.88;1.98;;;10.10;50.70;;;;;;5034385;28;20077;-73
2021/04/25 07:54:23;;;;;;;7.50;1.80;;;10.10;50.70;;;;;;5026543;28;20069;-76
2021/04/25 07:56:49;;;;;;;6.13;1.95;;;10.30;53.60;;;;;;5022942;28;20057;-72
2021/04/25 07:59:15;;;;;;;6.82;2.42;;;10.40;52.10;;;;;;5002533;28;20049;-70
2021/04/25 08:01:40;;;;;;;7.97;2.30;;;10.40;51.80;;;;;;5038654;28;20052;-72
2021/04/25 08:04:06;;;;;;;8.13;2.20;;;10.60;52.50;;;;;;5023527;28;20394;-74
2021/04/25 08:06:32;;;;;;;8.52;2.28;;;10.70;51.00;;;;;;5012172;28;20041;-70
2021/04/25 08:08:58;;;;;;;5.32;1.60;;;10.60;50.50;;;;;;5033716;28;20061;-76
2021/04/25 08:11:24;;;;;;;6.45;2.10;;;11.00;52.80;;;;;;4998919;28;20069;-74
2021/04/25 08:13:50;;;;;;;6.78;1.90;;;11.30;53.00;;;;;;5037707;28;20095;-76
2021/04/25 08:16:16;;;;;;;8.45;2.05;;;11.70;52.80;;;;;;5019164;28;20042;-73
2021/04/25 08:18:41;;;;;;;8.80;1.90;;;11.70;50.40;;;;;;5037692;28;20041;-73
2021/04/25 08:21:07;;;;;;;7.25;2.20;;;11.70;49.40;;;;;;5006418;28;20067;-73
2021/04/25 08:23:52;;;;;;;4.30;1.65;;;11.60;49.10;;;;;;5040709;28;20143;-72
2021/04/25 08:26:19;;;;;;;7.05;1.75;;;11.50;49.10;;;;;;5026169;28;20144;-72
2021/04/25 08:28:45;;;;;;;5.30;1.90;;;11.40;49.20;;;;;;5039140;28;20117;-72
2021/04/25 08:31:11;;;;;;;7.63;2.13;;;11.30;49.20;;;;;;5023479;28;20176;-71
2021/04/25 08:33:36;;;;;;;7.07;2.30;;;11.30;49.20;;;;;;5040359;28;20033;-72
2021/04/25 08:36:02;;;;;;;8.40;1.70;;;11.30;49.20;;;;;;5039702;28;20056;-72
2021/04/25 08:38:28;;;;;;;5.68;2.00;;;11.20;49.20;;;;;;5040476;28;20060;-73
2021/04/25 08:40:57;;;;;;;7.45;2.42;;;11.20;49.20;;;;;;5039204;28;20073;-73
2021/04/25 08:43:22;;;;;;;7.80;2.03;;;11.20;49.20;;;;;;5039492;28;20041;-72
2021/04/25 08:45:49;;;;;;;5.45;2.35;;;11.20;49.20;;;;;;5022282;28;20046;-73
2021/04/25 08:48:16;;;;;;;7.35;1.92;;;11.20;49.10;;;;;;5039451;28;20050;-72
2021/04/25 08:50:42;;;;;;;8.18;2.28;;;11.20;49.10;;;;;;5022534;28;20058;-73
2021/04/25 08:53:12;;;;;;;4.20;1.80;;;11.20;49.10;;;;;;5038851;28;20045;-72
2021/04/25 08:55:37;;;;;;;8.00;1.95;;;11.20;48.90;;;;;;5022587;28;20064;-73
2021/04/25 08:58:06;;;;;;;6.53;2.25;;;11.20;48.80;;;;;;5039023;28;20045;-71
2021/04/25 09:00:31;;;;;;;6.88;1.88;;;11.30;48.80;;;;;;5034875;28;20041;-77
2021/04/25 09:03:00;;;;;;;9.82;2.95;;;11.30;48.80;;;;;;5020898;28;20050;-74
2021/04/25 09:05:25;;;;;;;5.63;1.95;;;11.30;48.70;;;;;;5026772;28;20053;-73
2021/04/25 09:07:59;;;;;;;5.13;1.85;;;11.30;48.70;;;;;;5032035;28;20064;-72
2021/04/25 09:10:55;;;;;;;4.32;1.75;;;11.30;48.60;;;;;;5036677;28;20046;-72
2021/04/25 09:13:24;;;;;;;9.43;2.70;;;11.30;48.20;;;;;;5020036;28;20481;-73
2021/04/25 09:15:56;;;;;;;7.55;2.00;;;11.30;48.50;;;;;;5020067;28;20064;-73
2021/04/25 09:18:36;;;;;;;7.13;1.83;;;11.30;48.30;;;;;;5037776;28;20044;-73
2021/04/25 09:21:09;;;;;;;4.75;1.60;;;11.30;48.20;;;;;;5039072;28;20045;-73
2021/04/25 09:23:34;;;;;;;;;;;11.40;48.10;;;;;;5021983;28;20057;-72
2021/04/25 09:26:01;;;;;;;6.07;1.45;;;11.40;47.60;;;;;;5057560;28;19944;-73
2021/04/25 09:28:27;;;;;;;5.90;1.92;;;11.50;47.90;;;;;;5041762;28;20050;-72
2021/04/25 09:31:03;;;;;;;6.70;1.80;;;11.50;47.80;;;;;;5041414;28;20044;-72
2021/04/25 09:33:51;;;;;;;6.35;1.63;;;11.60;47.50;;;;;;5025922;28;20037;-72
2021/04/25 09:36:19;;;;;;;8.07;2.35;;;11.60;47.00;;;;;;5042069;28;20057;-72
2021/04/25 09:38:45;;;;;;;6.95;1.80;;;11.70;47.30;;;;;;5041260;28;20041;-72
2021/04/25 09:41:29;;;;;;;4.93;2.47;;;11.70;47.10;;;;;;5025396;28;20052;-72
2021/04/25 09:43:55;;;;;;;5.32;1.73;;;11.80;46.70;;;;;;5041133;28;20526;-72
2021/04/25 09:46:23;;;;;;;5.97;2.28;;;11.80;46.70;;;;;;5059285;28;20065;-71
2021/04/25 09:48:49;;;;;;;4.38;1.60;;;11.90;46.50;;;;;;5041113;28;20417;-72
2021/04/25 09:51:22;;;;;;;5.32;1.77;;;11.90;46.30;;;;;;5024685;28;20040;-72
2021/04/25 09:53:54;;;;;;;6.50;2.00;;;12.00;46.20;;;;;;5058504;28;20178;-72
2021/04/25 09:56:24;;;;;;;7.22;1.70;;;12.00;46.00;;;;;;5059333;28;20044;-73
2021/04/25 09:58:58;;;;;;;5.93;1.70;;;12.10;46.10;;;;;;5024375;28;20041;-72
2021/04/25 10:01:37;;;;;;;3.63;2.05;;;12.10;46.10;;;;;;5059005;28;20128;-72
2021/04/25 10:04:04;;;;;;;6.55;1.70;;;12.10;46.00;;;;;;5025481;28;20491;-72
2021/04/25 10:06:47;;;;;;;6.25;1.88;;;12.20;45.90;;;;;;5041270;28;20096;-72
2021/04/25 10:09:19;;;;;;;7.97;2.78;;;12.30;45.60;;;;;;5024220;28;20045;-72
2021/04/25 10:11:46;;;;;;;8.13;2.17;;;12.30;45.80;;;;;;5033010;28;20132;-75
2021/04/25 10:14:14;;;;;;;7.90;1.83;;;12.40;45.80;;;;;;5050570;28;20044;-72
2021/04/25 10:16:41;;;;;;;8.93;1.88;;;12.40;45.60;;;;;;5032876;28;20533;-72
2021/04/25 10:19:10;;;;;;;6.57;1.90;;;12.50;45.90;;;;;;5032594;28;20072;-72
2021/04/25 10:21:39;;;;;;;7.13;2.08;;;12.50;45.60;;;;;;5020921;28;20116;-72
2021/04/25 10:24:06;;;;;;;5.45;1.50;;;12.60;45.30;;;;;;5035699;28;20124;-72
2021/04/25 10:26:33;;;;;;;8.02;1.70;;;12.60;45.30;;;;;;5036888;28;20488;-71
2021/04/25 10:29:02;;;;;;;3.97;1.70;;;12.60;45.30;;;;;;5035669;28;20064;-73
2021/04/25 10:31:34;;;;;;;4.45;1.65;;;12.70;45.30;;;;;;5054411;28;20044;-72
2021/04/25 10:34:07;;;;;;;5.07;2.25;;;12.70;44.90;;;;;;5035822;28;20051;-72
2021/04/25 10:36:46;;;;;;;4.07;2.08;;;12.70;44.90;;;;;;5036634;28;20148;-72
2021/04/25 10:39:49;;;;;;;7.25;2.47;;;12.70;44.60;;;;;;5054028;28;20050;-72
2021/04/25 10:47:24;;;;;;;5.25;1.90;;;12.80;44.30;;;;;;5054192;28;20049;-72
2021/04/25 10:49:50;;;;;;;5.22;2.13;;;12.80;44.40;;;;;;5053602;28;20044;-74
2021/04/25 10:52:29;;;;;;;6.07;2.10;;;12.80;44.40;;;;;;5053650;28;20041;-72
2021/04/25 10:55:14;;;;;;;5.50;1.95;;;12.80;44.10;;;;;;5035453;28;20048;-72
2021/04/25 10:57:55;;;;;;;8.00;1.80;;;12.80;44.30;;;;;;5053994;28;20045;-72
2021/04/25 11:00:30;;;;;;;6.65;2.20;;;12.90;44.50;;;;;;5054006;28;20057;-72
2021/04/25 11:02:56;;;;;;;5.18;1.90;;;12.90;44.20;;;;;;5035475;28;20099;-74
2021/04/25 11:05:51;;;;;;;5.93;2.20;;;12.90;44.20;;;;;;5019610;28;20079;-72
2021/04/25 11:08:29;;;;;;;8.00;2.28;;;12.90;43.80;;;;;;5009349;28;20412;-72
2021/04/25 11:11:02;;;;;;;8.27;1.90;;;12.90;44.10;;;;;;5053214;28;20049;-73
2021/04/25 11:13:39;;;;;;;6.95;2.38;;;12.90;44.20;;;;;;5036043;28;20499;-72
2021/04/25 11:16:13;;;;;;;7.93;2.28;;;13.00;44.40;;;;;;5052993;28;20048;-72
2021/04/25 11:19:10;;;;;;;6.53;1.90;;;13.00;44.30;;;;;;5019677;28;20069;-73
2021/04/25 11:21:43;;;;;;;6.13;2.50;;;13.00;44.20;;;;;;5053526;28;20044;-73
2021/04/25 11:24:09;;;;;;;8.23;2.53;;;13.10;44.40;;;;;;5052711;28;20187;-71
2021/04/25 11:26:41;;;;;;;8.77;2.45;;;13.20;44.00;;;;;;5053466;28;20496;-72
2021/04/25 11:29:09;;;;;;;9.50;2.63;;;13.20;43.80;;;;;;5052983;28;20045;-72
2021/04/25 11:31:47;;;;;;;6.22;2.53;;;13.40;43.80;;;;;;5035144;28;20053;-73
2021/04/25 11:34:25;;;;;;;7.93;2.25;;;13.60;44.00;;;;;;5034779;28;20063;-72
2021/04/25 11:37:01;;;;;;;4.18;1.90;;;13.80;43.60;;;;;;5053316;28;20053;-72
2021/04/25 11:39:59;;;;;;;5.47;2.33;;;13.90;43.70;;;;;;5036654;28;20061;-72
2021/04/25 11:42:28;;;;;;;5.88;2.13;;;14.00;42.80;;;;;;5053537;28;20052;-73
2021/04/25 11:44:54;;;;;;;4.38;2.08;;;14.10;42.90;;;;;;5035491;28;20185;-72
2021/04/25 11:47:19;;;;;;;6.28;2.15;;;14.20;42.70;;;;;;5052132;28;20470;-73
2021/04/25 11:49:47;;;;;;;5.65;2.08;;;14.20;42.40;;;;;;5052748;28;20048;-73
2021/04/25 11:52:21;;;;;;;7.10;2.38;;;14.30;42.40;;;;;;5052153;28;20053;-73
2021/04/25 11:55:08;;;;;;;5.43;2.40;;;14.40;42.80;;;;;;5035379;28;20092;-73
2021/04/25 11:57:41;;;;;;;6.22;2.40;;;14.40;42.40;;;;;;5034978;28;20440;-73
2021/04/25 12:00:11;;;;;;;5.90;2.80;;;14.40;42.40;;;;;;5051996;28;20049;-73
2021/04/25 12:02:53;;;;;;;5.03;2.42;;;14.40;42.40;;;;;;5052669;28;20380;-73
2021/04/25 12:05:31;;;;;;;5.28;2.45;;;14.50;42.00;;;;;;5051969;28;20048;-73
2021/04/25 12:07:58;;;;;;;6.18;2.38;;;14.50;41.80;;;;;;5002260;28;20057;-72
2021/04/25 12:10:32;;;;;;;5.63;1.85;;;14.40;42.20;;;;;;5034139;28;20049;-72
2021/04/25 12:13:02;;;;;;;7.15;2.25;;;14.40;42.40;;;;;;5052345;28;20573;-71
2021/04/25 12:15:38;;;;;;;5.90;2.15;;;14.50;41.90;;;;;;5052437;28;20043;-72
2021/04/25 12:18:06;;;;;;;4.70;1.98;;;14.70;41.30;;;;;;5017569;28;20040;-75
2021/04/25 12:20:43;;;;;;;7.03;2.10;;;15.00;41.30;;;;;;5035190;28;20040;-72
2021/04/25 12:23:20;;;;;;;9.02;2.03;;;15.40;40.90;;;;;;5033495;28;20393;-73
2021/04/25 12:25:46;;;;;;;5.10;2.58;;;15.70;40.40;;;;;;5034096;28;20139;-73
2021/04/25 12:28:12;;;;;;;5.00;1.77;;;16.00;40.00;;;;;;5033660;28;20045;-72
2021/04/25 12:30:38;;;;;;;6.65;2.22;;;16.30;39.40;;;;;;5034552;28;20519;-72
2021/04/25 12:33:11;;;;;;;7.22;2.17;;;16.70;38.80;;;;;;5034045;28;20041;-75
2021/04/25 12:35:47;;;;;;;5.05;2.20;;;17.10;38.90;;;;;;5052281;28;20447;-72
2021/04/25 12:38:24;;;;;;;6.18;1.80;;;17.30;37.60;;;;;;5051311;28;20037;-72
2021/04/25 12:40:59;;;;;;;5.38;2.53;;;17.30;37.00;;;;;;5017892;28;20143;-72
2021/04/25 12:43:26;;;;;;;4.65;1.80;;;17.30;36.60;;;;;;5032371;28;20132;-72
2021/04/25 12:45:52;;;;;;;6.78;1.98;;;17.20;36.40;;;;;;5017958;28;20073;-72
2021/04/25 12:48:56;;;;;;;4.63;2.00;;;17.30;36.80;;;;;;5051076;28;20072;-72
2021/04/25 12:51:40;;;;;;;4.60;1.77;;;17.40;36.50;;;;;;5037619;28;20045;-72
2021/04/25 12:54:18;;;;;;;5.63;1.60;;;17.60;36.90;;;;;;5051346;28;20041;-74
2021/04/25 12:56:46;;;;;;;7.30;2.15;;;17.80;35.80;;;;;;5017416;28;20048;-72
2021/04/25 12:59:15;;;;;;;5.15;2.45;;;17.90;35.90;;;;;;5033150;28;20397;-73
2021/04/25 13:01:45;;;;;;;5.18;1.98;;;18.00;35.80;;;;;;5051349;28;20430;-73
2021/04/25 13:04:29;;;;;;;6.40;2.05;;;18.00;35.50;;;;;;5050975;28;20103;-73